Accueil
METAR-TAF:

METAR-TAF

Aéroports :

Angers, France

Angers Loire Aéroport

latitude: 47-33-37N, longitude: 000-18-44W, altitude: 59 m

Observation

Le bulletin a été fait il y a 33 minutes, à 22:00 UTC
Vent 5 kt de ouest/sud-ouest
Température 15°C
Humidité 67%
Pression 1015 hPa
Visibilité 10 km ou plus
pas de nuages en-dessous de 1500 mètres et pas de cumulonimbus.

METAR: LFJR 202200Z AUTO 25005KT CAVOK 15/09 Q1015

Heure: 00:33 (22:33 UTC)

Prévision

Le bulletin a été fait il y a 11 heures et 33 minutes, à 11:00 UTC
Prévision valable du 20 à 12 UTC au 20 à 21 UTC
Vent 11 kt de ouest
Visibilité 10 km ou plus
Nuages épars à une hauteur de 4500 ft

TAF: LFJR 201100Z 2012/2021 26011KT 9999 SCT045

Observations et prévisions météorologiques de plus de 4000 aéroports (messages METAR et TAF).

Les stations disponibles sont représentées par des disques jaunes et rouges sur la carte.

Passer la souris dessus pour voir le nom de la station.

Cliquer dessus pour voir les observations et prévisions météorologiques.

Pour changer de carte: cliquez sur les boutons verts avec une croix noire pour zoomer, sur le bouton vert avec un tiret pour effectuer un zoom arrière, ou sur les flèches vertes pour les cartes adjacentes.


METAR-TAF: